Time;durP1;ratioP1;P1;durP2;ratioP2;P2;SDS_P1;SDS_P2;PMS_P1;PMS_P2;Temp;Humidity;BMP_temperature;BMP_pressure;BME280_temperature;BME280_humidity;BME280_pressure;Samples;Min_cycle;Max_cycle;Signal;HPM_P1;HPM_P2
2022/07/26 00:01:34;;;;;;;4.72;2.72;;;;;;;16.57;100.00;99731.92;1681241;85;21441;-68
2022/07/26 00:04:01;;;;;;;6.60;2.83;;;;;;;16.50;100.00;99733.79;1681102;83;21532;-66
2022/07/26 00:06:29;;;;;;;3.98;2.70;;;;;;;16.42;100.00;99728.97;1680486;84;21033;-68
2022/07/26 00:08:56;;;;;;;4.83;3.00;;;;;;;16.35;100.00;99717.05;1696069;83;21011;-67
2022/07/26 00:11:22;;;;;;;4.90;2.83;;;;;;;16.27;100.00;99725.55;1696125;83;22167;-67
2022/07/26 00:13:49;;;;;;;4.35;2.47;;;;;;;16.20;100.00;99720.77;1695956;84;22295;-67
2022/07/26 00:16:17;;;;;;;4.62;2.90;;;;;;;16.14;100.00;99720.20;1688130;84;21070;-68
2022/07/26 00:18:43;;;;;;;6.87;3.02;;;;;;;16.06;100.00;99717.70;1705123;83;21280;-68
2022/07/26 00:21:10;;;;;;;4.15;2.45;;;;;;;15.97;100.00;99720.48;1704900;83;21081;-68
2022/07/26 00:23:38;;;;;;;4.08;2.50;;;;;;;15.90;100.00;99720.03;1705023;84;21004;-68
2022/07/26 00:26:05;;;;;;;5.78;2.67;;;;;;;15.86;100.00;99722.98;1704802;83;21136;-66
2022/07/26 00:28:31;;;;;;;3.42;2.45;;;;;;;15.82;100.00;99722.80;1704958;82;21117;-67
2022/07/26 00:30:59;;;;;;;4.30;2.60;;;;;;;15.78;100.00;99717.31;1704999;84;21246;-68
2022/07/26 00:33:26;;;;;;;3.00;2.62;;;;;;;15.73;100.00;99722.47;1705009;84;21109;-68
2022/07/26 00:35:52;;;;;;;5.72;2.60;;;;;;;15.69;100.00;99719.59;1704812;83;21145;-68
2022/07/26 00:38:18;;;;;;;3.15;2.85;;;;;;;15.66;100.00;99715.79;1705250;83;21053;-67
2022/07/26 00:40:45;;;;;;;10.50;2.40;;;;;;;15.63;100.00;99714.67;1704877;84;21073;-68
2022/07/26 00:43:13;;;;;;;5.85;3.22;;;;;;;15.59;100.00;99710.50;1704956;83;21086;-68
2022/07/26 00:45:40;;;;;;;5.15;3.02;;;;;;;15.57;100.00;99711.08;1704885;84;21061;-68
2022/07/26 00:48:07;;;;;;;6.47;2.70;;;;;;;15.54;100.00;99708.62;1704922;84;21054;-68
2022/07/26 00:50:34;;;;;;;4.62;2.98;;;;;;;15.51;100.00;99702.20;1704614;84;21552;-69
2022/07/26 00:53:01;;;;;;;5.03;2.95;;;;;;;15.46;100.00;99700.30;1704841;83;21061;-68
2022/07/26 00:55:28;;;;;;;6.92;2.90;;;;;;;15.44;100.00;99700.90;1682005;84;22066;-67
2022/07/26 00:57:56;;;;;;;5.87;2.87;;;;;;;15.40;100.00;99694.08;1681128;84;21611;-68
2022/07/26 01:00:27;;;;;;;3.87;3.20;;;;;;;15.37;100.00;99696.91;1681282;84;21146;-68
2022/07/26 01:02:54;;;;;;;3.03;2.77;;;;;;;15.33;100.00;99693.61;1696150;84;21047;-71
2022/07/26 01:05:22;;;;;;;5.45;3.40;;;;;;;15.29;100.00;99696.92;1681239;85;21862;-66
2022/07/26 01:07:49;;;;;;;4.75;3.40;;;;;;;15.27;100.00;99692.18;1696019;84;22230;-68
2022/07/26 01:10:16;;;;;;;4.33;2.92;;;;;;;15.24;100.00;99692.39;1695874;84;21102;-69
2022/07/26 01:12:43;;;;;;;4.03;3.00;;;;;;;15.23;100.00;99693.35;1696034;83;21027;-66
2022/07/26 01:15:13;;;;;;;8.25;3.15;;;;;;;15.20;100.00;99698.83;1695928;83;21063;-66
2022/07/26 01:17:40;;;;;;;3.55;3.20;;;;;;;15.18;100.00;99697.23;1681330;85;21107;-68
2022/07/26 01:20:09;;;;;;;4.78;3.15;;;;;;;15.13;100.00;99700.16;1695736;83;21300;-67
2022/07/26 01:22:36;;;;;;;7.92;3.65;;;;;;;15.09;100.00;99699.97;1695777;84;21262;-67
2022/07/26 01:25:05;;;;;;;7.60;3.85;;;;;;;15.05;100.00;99698.48;1696103;84;20996;-68
2022/07/26 01:27:37;;;;;;;6.97;3.42;;;;;;;15.02;100.00;99696.00;1695844;84;21045;-68
2022/07/26 01:30:01;;;;;;;5.62;3.37;;;;;;;14.99;100.00;99702.35;1695516;84;21063;-68
2022/07/26 01:32:28;;;;;;;5.65;3.30;;;;;;;14.96;100.00;99697.73;1695937;84;21198;-69
2022/07/26 01:34:55;;;;;;;7.30;3.58;;;;;;;14.93;100.00;99695.25;1680828;84;21072;-67
2022/07/26 01:37:22;;;;;;;6.08;3.80;;;;;;;14.90;100.00;99701.59;1669539;85;21741;-67
2022/07/26 01:39:49;;;;;;;6.42;3.62;;;;;;;14.89;100.00;99699.42;1669601;85;21081;-67
2022/07/26 01:42:17;;;;;;;6.95;3.95;;;;;;;14.88;100.00;99696.41;1662503;86;21128;-68
2022/07/26 01:44:43;;;;;;;6.17;3.87;;;;;;;14.89;100.00;99696.77;1662691;86;21228;-68
2022/07/26 01:47:10;;;;;;;3.72;3.33;;;;;;;14.88;100.00;99700.39;1662098;86;21018;-69
2022/07/26 01:49:36;;;;;;;8.40;3.62;;;;;;;14.90;100.00;99694.48;1662426;86;21073;-69
2022/07/26 01:52:03;;;;;;;4.15;3.50;;;;;;;14.91;100.00;99695.37;1650380;86;21077;-69
2022/07/26 01:54:31;;;;;;;5.97;3.95;;;;;;;14.90;100.00;99697.14;1672942;85;21104;-70
2022/07/26 01:56:58;;;;;;;7.60;3.92;;;;;;;14.89;100.00;99694.13;1673868;84;21160;-69
2022/07/26 01:59:25;;;;;;;7.58;3.80;;;;;;;14.90;100.00;99702.44;1662161;86;21113;-68
2022/07/26 02:01:52;;;;;;;9.48;4.00;;;;;;;14.92;100.00;99700.19;1662019;86;21165;-68
2022/07/26 02:07:03;;;;;;;7.40;4.28;;;;;;;14.92;100.00;99706.34;1662108;86;21073;-68
2022/07/26 02:09:30;;;;;;;6.05;3.83;;;;;;;14.94;100.00;99703.59;1662256;86;21486;-68
2022/07/26 02:11:56;;;;;;;5.87;3.90;;;;;;;14.95;100.00;99698.66;1662040;86;21149;-68
2022/07/26 02:14:22;;;;;;;4.97;3.80;;;;;;;14.94;100.00;99692.52;1662245;86;21116;-69
2022/07/26 02:16:50;;;;;;;5.58;4.40;;;;;;;14.94;100.00;99702.27;1662051;86;21235;-70
2022/07/26 02:19:16;;;;;;;6.60;3.50;;;;;;;14.95;100.00;99702.64;1662246;86;21620;-69
2022/07/26 02:21:42;;;;;;;4.00;3.45;;;;;;;14.92;100.00;99697.05;1706857;84;21771;-68
2022/07/26 02:24:09;;;;;;;12.30;4.08;;;;;;;14.92;100.00;99702.36;1707959;83;21014;-68
2022/07/26 02:26:35;;;;;;;13.35;3.55;;;;;;;14.93;100.00;99697.90;1703547;83;21086;-67
2022/07/26 02:29:02;;;;;;;5.67;3.80;;;;;;;14.92;100.00;99697.53;1690582;84;21058;-67
2022/07/26 02:31:29;;;;;;;5.03;3.60;;;;;;;14.92;100.00;99690.91;1697512;84;21057;-67
2022/07/26 02:33:55;;;;;;;8.75;3.60;;;;;;;14.95;100.00;99688.05;1682999;83;21558;-68
2022/07/26 02:36:22;;;;;;;11.48;4.37;;;;;;;14.97;100.00;99692.80;1698419;84;21097;-68
2022/07/26 02:38:48;;;;;;;5.67;3.87;;;;;;;14.98;100.00;99690.53;1699722;83;21163;-67
2022/07/26 02:41:15;;;;;;;6.83;3.70;;;;;;;14.97;100.00;99694.12;1692034;84;21054;-67
2022/07/26 02:43:41;;;;;;;4.47;4.08;;;;;;;15.00;100.00;99696.56;1693056;84;21028;-67
2022/07/26 02:46:09;;;;;;;4.10;3.70;;;;;;;14.99;100.00;99694.88;1697380;83;21234;-67
2022/07/26 02:48:36;;;;;;;6.00;4.08;;;;;;;14.98;100.00;99699.81;1707382;84;21062;-68
2022/07/26 02:51:03;;;;;;;9.38;3.90;;;;;;;14.97;100.00;99699.42;1707826;84;21696;-68
2022/07/26 02:53:29;;;;;;;9.50;4.17;;;;;;;14.95;100.00;99703.96;1694537;84;21051;-67
2022/07/26 02:55:56;;;;;;;4.53;4.12;;;;;;;14.95;100.00;99702.64;1675239;84;21033;-68
2022/07/26 02:58:23;;;;;;;4.85;4.20;;;;;;;14.95;100.00;99702.16;1682430;84;21147;-67
2022/07/26 03:00:50;;;;;;;10.05;4.25;;;;;;;14.98;100.00;99703.80;1662316;86;21073;-68
2022/07/26 03:03:17;;;;;;;6.87;4.50;;;;;;;15.00;100.00;99709.83;1640307;86;21128;-67
2022/07/26 03:05:43;;;;;;;7.00;4.22;;;;;;;15.05;100.00;99706.44;1676748;84;21057;-68
2022/07/26 03:08:10;;;;;;;6.22;4.45;;;;;;;15.11;100.00;99707.36;1662294;86;21144;-68
2022/07/26 03:10:37;;;;;;;5.00;4.40;;;;;;;15.18;100.00;99700.72;1672404;84;21966;-69
2022/07/26 03:13:04;;;;;;;6.30;3.98;;;;;;;15.27;100.00;99705.45;1664063;84;21058;-68
2022/07/26 03:15:30;;;;;;;5.90;4.30;;;;;;;15.40;100.00;99707.34;1651383;85;21069;-68
2022/07/26 03:17:57;;;;;;;6.25;3.90;;;;;;;15.52;100.00;99706.55;1653450;86;21125;-69
2022/07/26 03:20:24;;;;;;;3.92;3.30;;;;;;;15.63;100.00;99704.05;1641562;87;21125;-68
2022/07/26 03:22:50;;;;;;;5.08;4.08;;;;;;;15.78;100.00;99705.36;1643761;87;21790;-67
2022/07/26 03:25:17;;;;;;;4.65;4.05;;;;;;;15.90;100.00;99693.95;1644102;87;21494;-67
2022/07/26 03:27:43;;;;;;;4.28;3.87;;;;;;;16.02;100.00;99693.13;1644215;87;21084;-68
2022/07/26 03:30:11;;;;;;;7.95;3.52;;;;;;;16.17;100.00;99692.57;1644536;87;21061;-68
2022/07/26 03:32:38;;;;;;;3.87;3.30;;;;;;;16.30;100.00;99691.28;1643833;87;21152;-68
2022/07/26 03:35:05;;;;;;;4.15;3.00;;;;;;;16.43;100.00;99686.84;1656273;85;22233;-67
2022/07/26 03:37:31;;;;;;;3.35;3.05;;;;;;;16.58;100.00;99693.73;1658803;84;21139;-68
2022/07/26 03:39:58;;;;;;;3.47;2.77;;;;;;;16.80;100.00;99693.63;1654662;85;21641;-67
2022/07/26 03:42:24;;;;;;;3.12;2.83;;;;;;;17.18;100.00;99692.72;1643595;87;21092;-68
2022/07/26 03:44:51;;;;;;;4.83;2.77;;;;;;;17.78;100.00;99686.59;1643827;87;21076;-67
2022/07/26 03:47:17;;;;;;;3.90;2.65;;;;;;;18.49;100.00;99683.94;1643960;87;21277;-67
2022/07/26 03:49:43;;;;;;;4.03;2.50;;;;;;;19.14;100.00;99680.25;1644265;87;21084;-70
2022/07/26 03:52:10;;;;;;;4.00;2.55;;;;;;;19.63;100.00;99686.48;1644038;87;22118;-68
2022/07/26 03:54:36;;;;;;;2.90;2.50;;;;;;;20.11;100.00;99686.60;1660352;85;21063;-67
2022/07/26 03:57:03;;;;;;;4.75;2.50;;;;;;;20.57;100.00;99684.53;1671495;85;21077;-67
2022/07/26 03:59:29;;;;;;;3.20;2.17;;;;;;;21.00;100.00;99692.36;1671759;85;21151;-67
2022/07/26 04:01:56;;;;;;;2.20;2.00;;;;;;;21.40;100.00;99689.36;1671818;85;21038;-68
2022/07/26 04:04:22;;;;;;;5.90;2.20;;;;;;;21.76;96.57;99690.09;1671736;85;21140;-68
2022/07/26 04:06:48;;;;;;;4.55;1.80;;;;;;;22.10;94.48;99692.85;1671968;85;21120;-67
2022/07/26 04:09:15;;;;;;;4.12;1.95;;;;;;;22.36;91.79;99698.03;1671951;85;21128;-67
2022/07/26 04:11:42;;;;;;;3.08;2.35;;;;;;;22.62;89.80;99694.73;1672114;85;21217;-68
2022/07/26 04:14:09;;;;;;;3.20;2.25;;;;;;;22.87;88.37;99691.05;1671912;85;21604;-68
2022/07/26 04:16:35;;;;;;;5.92;2.17;;;;;;;23.13;86.46;99689.44;1671996;85;21509;-68
2022/07/26 04:19:02;;;;;;;3.40;1.80;;;;;;;23.37;84.97;99688.03;1671796;85;21698;-68
2022/07/26 04:21:28;;;;;;;2.47;2.08;;;;;;;23.64;83.53;99695.23;1663947;84;21121;-67
2022/07/26 04:23:55;;;;;;;2.08;1.75;;;;;;;23.91;81.85;99698.41;1657269;86;21204;-67
2022/07/26 04:26:21;;;;;;;2.65;1.85;;;;;;;24.14;80.50;99697.44;1657434;86;21593;-67
2022/07/26 04:28:48;;;;;;;3.50;1.70;;;;;;;24.29;79.04;99693.22;1690881;84;21037;-68
2022/07/26 04:31:14;;;;;;;6.05;2.75;;;;;;;24.51;77.91;99693.73;1690672;84;21548;-68
2022/07/26 04:33:41;;;;;;;2.65;1.50;;;;;;;24.73;76.80;99692.35;1691000;83;21600;-68
2022/07/26 04:36:08;;;;;;;2.58;1.85;;;;;;;24.90;75.67;99698.19;1690773;83;21868;-68
2022/07/26 04:38:34;;;;;;;3.70;1.80;;;;;;;25.06;74.18;99698.78;1691065;84;21658;-68
2022/07/26 04:41:01;;;;;;;3.25;1.65;;;;;;;25.24;73.39;99700.59;1690817;84;21060;-68
2022/07/26 04:43:27;;;;;;;2.45;1.77;;;;;;;25.46;72.44;99701.33;1698630;84;21562;-69
2022/07/26 04:45:56;;;;;;;7.10;1.75;;;;;;;25.66;71.58;99708.65;1705058;84;21577;-68
2022/07/26 04:48:22;;;;;;;2.30;1.65;;;;;;;25.86;70.83;99706.98;1704840;83;21249;-67
2022/07/26 04:50:49;;;;;;;5.85;1.65;;;;;;;26.00;69.17;99711.80;1705132;83;21109;-68
2022/07/26 04:53:15;;;;;;;2.67;1.77;;;;;;;26.10;68.31;99708.42;1704313;83;21100;-69
2022/07/26 04:55:41;;;;;;;7.08;1.70;;;;;;;26.21;67.72;99718.05;1691119;84;21044;-67
2022/07/26 04:58:08;;;;;;;9.05;1.70;;;;;;;26.35;67.82;99716.53;1690772;84;21063;-68
2022/07/26 05:00:35;;;;;;;3.58;1.62;;;;;;;26.58;66.87;99715.38;1690831;84;21323;-68
2022/07/26 05:03:02;;;;;;;1.95;1.40;;;;;;;26.81;65.90;99714.67;1690630;84;21116;-69
2022/07/26 05:05:30;;;;;;;2.20;1.90;;;;;;;26.94;64.76;99713.13;1691185;84;21005;-68
2022/07/26 05:07:59;;;;;;;4.05;1.55;;;;;;;27.09;64.14;99701.07;1690587;84;21056;-67
2022/07/26 05:10:35;;;;;;;3.92;1.62;;;;;;;26.92;63.32;99705.69;1691016;84;21102;-67
2022/07/26 05:13:03;;;;;;;1.70;1.60;;;;;;;26.72;64.16;99711.97;1697440;84;21753;-69
2022/07/26 05:15:31;;;;;;;1.82;1.60;;;;;;;26.64;64.02;99708.43;1704755;84;21090;-69
2022/07/26 05:18:05;;;;;;;1.50;1.40;;;;;;;26.79;64.77;99702.67;1704648;84;21034;-67
2022/07/26 05:20:31;;;;;;;5.25;1.60;;;;;;;27.00;63.56;99702.95;1704897;83;22064;-67
2022/07/26 05:22:58;;;;;;;2.22;1.85;;;;;;;27.15;62.85;99703.09;1704795;84;22130;-69
2022/07/26 05:25:25;;;;;;;2.62;1.70;;;;;;;27.43;62.43;99703.19;1704772;84;21172;-67
2022/07/26 05:27:52;;;;;;;7.85;1.80;;;;;;;27.68;60.99;99707.95;1704851;84;21625;-69
2022/07/26 05:30:19;;;;;;;3.62;1.40;;;;;;;27.74;60.54;99701.81;1704686;84;21042;-69
2022/07/26 05:32:45;;;;;;;2.42;1.55;;;;;;;27.97;60.27;99699.16;1704840;84;21589;-69
2022/07/26 05:35:12;;;;;;;1.87;1.52;;;;;;;28.10;59.43;99702.11;1704752;83;21057;-68
2022/07/26 05:37:39;;;;;;;3.70;1.70;;;;;;;28.03;58.57;99699.28;1704706;84;21920;-67
2022/07/26 05:40:06;;;;;;;2.25;1.60;;;;;;;27.92;59.16;99702.92;1704755;84;21063;-68
2022/07/26 05:42:33;;;;;;;3.83;1.40;;;;;;;27.89;59.69;99699.23;1704830;84;21066;-68
2022/07/26 05:45:00;;;;;;;2.40;1.40;;;;;;;27.90;59.42;99700.91;1704798;84;21011;-69
2022/07/26 05:47:26;;;;;;;2.45;1.50;;;;;;;27.99;59.64;99706.59;1704934;83;21126;-68
2022/07/26 05:49:54;;;;;;;2.15;1.45;;;;;;;28.03;59.48;99709.28;1704702;83;21230;-69
2022/07/26 05:52:22;;;;;;;2.80;1.60;;;;;;;28.11;58.11;99708.36;1704855;84;21149;-68
2022/07/26 05:54:48;;;;;;;3.62;1.47;;;;;;;27.92;58.19;99715.09;1695201;84;21039;-69
2022/07/26 05:57:15;;;;;;;2.75;1.45;;;;;;;27.93;59.13;99710.87;1690705;84;21060;-70
2022/07/26 05:59:41;;;;;;;2.70;1.75;;;;;;;28.00;58.67;99705.59;1691080;84;21580;-69
2022/07/26 06:02:07;;;;;;;1.98;1.40;;;;;;;28.03;58.37;99710.63;1690628;84;21121;-68
2022/07/26 06:04:34;;;;;;;2.42;1.70;;;;;;;28.05;58.83;99712.64;1691025;83;21104;-69
2022/07/26 06:07:01;;;;;;;2.47;1.50;;;;;;;28.21;58.05;99711.17;1690617;84;21064;-69
2022/07/26 06:09:27;;;;;;;6.33;1.70;;;;;;;28.34;58.53;99700.22;1691040;84;21129;-68
2022/07/26 06:11:54;;;;;;;3.35;1.50;;;;;;;28.60;58.46;99706.13;1690837;84;21517;-69
2022/07/26 06:14:21;;;;;;;3.45;1.70;;;;;;;28.74;57.49;99700.92;1690685;83;21154;-68
2022/07/26 06:16:48;;;;;;;4.58;1.62;;;;;;;28.84;56.68;99705.02;1690652;84;21029;-68
2022/07/26 06:19:15;;;;;;;6.00;1.70;;;;;;;28.90;55.33;99707.52;1690693;83;21567;-68
2022/07/26 06:21:41;;;;;;;4.17;1.90;;;;;;;28.83;55.25;99705.23;1690404;83;21067;-69
2022/07/26 06:24:08;;;;;;;2.20;1.57;;;;;;;28.57;55.10;99699.70;1690463;84;21108;-70
2022/07/26 06:26:34;;;;;;;3.98;1.87;;;;;;;28.30;55.47;99694.35;1690529;84;21143;-68
2022/07/26 06:29:01;;;;;;;1.87;1.67;;;;;;;27.97;56.70;99691.88;1690454;84;21100;-69
2022/07/26 06:34:28;;;;;;;7.17;1.40;;;;;;;27.47;57.93;99680.16;1796568;78;22604;-70
2022/07/26 06:36:54;;;;;;;3.15;1.52;;;;;;;27.43;57.63;99682.39;1756391;80;21672;-69
2022/07/26 06:39:21;;;;;;;2.62;1.47;;;;;;;27.52;57.69;99683.19;1756371;81;21214;-70
2022/07/26 06:41:47;;;;;;;3.15;1.50;;;;;;;27.43;56.71;99677.50;1756632;81;21040;-69
2022/07/26 06:44:13;;;;;;;4.10;1.55;;;;;;;27.22;57.13;99681.64;1756356;81;22168;-69
2022/07/26 06:46:40;;;;;;;2.55;1.70;;;;;;;26.85;53.48;99684.44;1756435;81;21608;-69
2022/07/26 06:49:06;;;;;;;4.97;1.50;;;;;;;26.62;54.20;99688.85;1756337;81;21077;-69
2022/07/26 06:51:33;;;;;;;1.87;1.52;;;;;;;26.44;54.58;99683.13;1756166;81;21299;-67
2022/07/26 06:53:59;;;;;;;1.82;1.40;;;;;;;26.30;52.67;99672.50;1756449;81;21686;-70
2022/07/26 06:56:26;;;;;;;1.75;1.50;;;;;;;26.29;53.03;99679.41;1756346;81;21007;-68
2022/07/26 06:58:54;;;;;;;3.02;1.27;;;;;;;26.47;53.25;99666.57;1756507;81;21083;-68
2022/07/26 07:01:21;;;;;;;1.70;1.40;;;;;;;26.61;52.38;99662.88;1756088;81;21109;-69
2022/07/26 07:03:47;;;;;;;5.20;1.92;;;;;;;26.79;51.84;99658.94;1756366;81;21037;-69
2022/07/26 07:06:14;;;;;;;3.60;1.70;;;;;;;27.04;51.68;99659.39;1756083;81;20991;-69
2022/07/26 07:08:40;;;;;;;1.40;1.30;;;;;;;27.45;50.57;99653.31;1756423;81;21047;-69
2022/07/26 07:11:07;;;;;;;1.60;1.40;;;;;;;27.90;49.82;99656.26;1756111;81;21047;-69
2022/07/26 07:13:33;;;;;;;2.22;1.62;;;;;;;28.19;49.40;99655.52;1756195;81;21050;-69
2022/07/26 07:16:00;;;;;;;6.25;1.90;;;;;;;28.36;47.72;99652.14;1744980;81;21239;-69
2022/07/26 07:18:26;;;;;;;2.85;1.50;;;;;;;28.24;48.02;99655.30;1726084;83;21023;-67
2022/07/26 07:20:53;;;;;;;2.62;1.45;;;;;;;28.10;48.18;99653.91;1726318;83;21034;-68
2022/07/26 07:23:21;;;;;;;4.42;1.52;;;;;;;28.24;48.09;99657.16;1725916;83;21121;-69
2022/07/26 07:25:49;;;;;;;3.55;1.70;;;;;;;28.51;47.74;99657.12;1726260;83;21091;-70
2022/07/26 07:28:16;;;;;;;1.65;1.20;;;;;;;28.78;46.68;99645.30;1725869;83;21434;-70
2022/07/26 07:30:42;;;;;;;1.57;1.37;;;;;;;28.98;46.97;99647.78;1726067;83;21062;-70
2022/07/26 07:33:11;;;;;;;2.47;1.50;;;;;;;29.34;46.41;99648.38;1721523;82;21064;-68
2022/07/26 07:35:37;;;;;;;3.50;1.60;;;;;;;29.67;45.94;99646.06;1713255;82;21043;-68
2022/07/26 07:38:04;;;;;;;7.37;1.70;;;;;;;29.86;44.46;99644.61;1713244;83;21011;-69
2022/07/26 07:40:31;;;;;;;1.92;1.52;;;;;;;29.73;45.06;99651.78;1713485;83;21773;-69
2022/07/26 07:42:57;;;;;;;1.77;1.30;;;;;;;29.49;45.42;99651.91;1713353;83;21055;-69
2022/07/26 07:45:24;;;;;;;3.52;1.42;;;;;;;29.55;45.54;99652.17;1713115;82;21079;-69
2022/07/26 07:47:50;;;;;;;2.30;1.52;;;;;;;29.62;45.55;99658.51;1713261;83;21094;-69
2022/07/26 07:50:19;;;;;;;1.50;1.40;;;;;;;29.58;44.45;99658.56;1712880;82;21064;-70
2022/07/26 07:52:45;;;;;;;2.98;1.32;;;;;;;29.35;43.55;99662.25;1712457;82;21954;-69
2022/07/26 07:55:12;;;;;;;3.98;1.65;;;;;;;29.06;44.81;99663.96;1712795;83;21559;-69
2022/07/26 07:57:38;;;;;;;1.80;1.40;;;;;;;28.76;45.76;99671.25;1713043;83;21111;-70
2022/07/26 08:00:11;;;;;;;5.05;1.90;;;;;;;28.46;46.57;99671.70;1712788;83;21039;-69
2022/07/26 08:02:39;;;;;;;18.00;2.05;;;;;;;28.22;47.16;99673.58;1713094;83;21051;-68
2022/07/26 08:05:08;;;;;;;5.95;1.77;;;;;;;28.06;47.76;99681.84;1713104;83;22299;-71
2022/07/26 08:07:36;;;;;;;1.80;1.52;;;;;;;27.88;48.28;99681.30;1713457;82;22053;-69
2022/07/26 08:10:04;;;;;;;3.90;1.70;;;;;;;27.56;48.64;99680.44;1713145;83;21035;-71
2022/07/26 08:12:31;;;;;;;2.33;1.40;;;;;;;27.37;49.22;99671.75;1712913;82;21063;-69
2022/07/26 08:14:57;;;;;;;5.25;1.65;;;;;;;27.21;49.42;99679.94;1713026;82;21075;-69
2022/07/26 08:17:24;;;;;;;6.58;1.52;;;;;;;27.06;49.79;99674.92;1712765;83;21274;-69
2022/07/26 08:19:51;;;;;;;6.08;1.27;;;;;;;27.04;49.69;99674.25;1713090;82;21080;-68
2022/07/26 08:22:17;;;;;;;2.15;1.37;;;;;;;27.19;49.45;99675.18;1712965;83;21567;-68
2022/07/26 08:24:45;;;;;;;1.65;1.22;;;;;;;27.55;48.44;99676.06;1713396;83;21520;-68
2022/07/26 08:27:13;;;;;;;3.45;1.22;;;;;;;27.97;47.18;99669.39;1712787;83;21055;-70
2022/07/26 08:29:41;;;;;;;2.15;1.05;;;;;;;28.32;46.80;99665.72;1713188;83;21565;-69
2022/07/26 08:32:08;;;;;;;0.90;0.85;;;;;;;28.65;45.55;99668.48;1713008;83;21119;-68
2022/07/26 08:34:36;;;;;;;6.05;1.22;;;;;;;28.92;42.85;99660.75;1712912;82;21091;-70
2022/07/26 08:37:03;;;;;;;2.65;1.10;;;;;;;28.85;42.75;99655.75;1712850;83;21595;-71
2022/07/26 08:39:30;;;;;;;1.95;1.10;;;;;;;28.54;43.44;99666.22;1713107;82;21130;-69
2022/07/26 08:41:57;;;;;;;4.55;1.20;;;;;;;28.37;44.48;99657.91;1713100;82;21139;-70
2022/07/26 08:44:24;;;;;;;2.47;1.20;;;;;;;28.65;44.62;99651.39;1712847;83;21103;-68
2022/07/26 08:46:53;;;;;;;7.17;1.40;;;;;;;29.00;43.45;99645.73;1713009;82;21116;-70
2022/07/26 08:49:20;;;;;;;2.37;1.00;;;;;;;29.03;43.67;99650.80;1712864;83;21063;-69
2022/07/26 08:51:47;;;;;;;3.55;1.52;;;;;;;28.92;43.46;99656.69;1712862;82;21103;-70
2022/07/26 08:54:15;;;;;;;9.98;2.02;;;;;;;28.84;43.62;99659.47;1713203;82;21099;-70
2022/07/26 08:56:51;;;;;;;3.22;1.17;;;;;;;28.55;44.11;99667.92;1712970;83;21022;-70
2022/07/26 08:59:19;;;;;;;4.90;1.20;;;;;;;28.28;44.59;99657.66;1725999;82;21109;-68
2022/07/26 09:02:03;;;;;;;2.15;1.27;;;;;;;28.35;45.32;99655.89;1678358;85;21040;-69
2022/07/26 09:04:34;;;;;;;1.87;1.10;;;;;;;28.60;44.84;99646.53;1713182;83;21062;-69
2022/07/26 09:07:14;;;;;;;1.25;0.90;;;;;;;29.14;43.77;99641.88;1678517;85;21309;-68
2022/07/26 09:10:04;;;;;;;1.42;1.00;;;;;;;29.62;41.77;99636.80;1678729;85;21109;-69
2022/07/26 09:12:31;;;;;;;2.95;1.02;;;;;;;29.82;40.05;99629.74;1678434;85;21068;-69
2022/07/26 09:14:59;;;;;;;2.75;1.20;;;;;;;30.13;39.78;99617.69;1713068;83;21041;-69
2022/07/26 09:17:41;;;;;;;2.80;1.30;;;;;;;30.24;40.69;99610.36;1712958;83;21070;-70
2022/07/26 09:20:13;;;;;;;2.77;1.40;;;;;;;30.54;38.65;99615.62;1712990;82;21117;-70
2022/07/26 09:23:10;;;;;;;1.95;1.00;;;;;;;30.70;38.75;99608.50;1712947;83;21589;-69
2022/07/26 09:25:41;;;;;;;2.15;1.27;;;;;;;30.86;38.24;99613.33;1678647;85;21093;-70
2022/07/26 09:28:29;;;;;;;1.77;1.02;;;;;;;30.96;36.48;99619.75;1712733;83;21038;-69
2022/07/26 09:31:03;;;;;;;0.98;0.90;;;;;;;30.77;36.75;99611.79;1713024;82;21121;-70
2022/07/26 09:33:47;;;;;;;2.20;0.90;;;;;;;30.34;36.75;99621.42;1715545;82;21164;-70
2022/07/26 09:36:15;;;;;;;3.72;1.17;;;;;;;30.12;37.51;99621.45;1691098;84;21554;-70
2022/07/26 09:38:58;;;;;;;2.25;1.20;;;;;;;30.11;38.04;99614.32;1691238;84;21100;-69
2022/07/26 09:41:34;;;;;;;1.05;0.95;;;;;;;30.39;38.16;99614.88;1691030;84;21548;-70
2022/07/26 09:44:06;;;;;;;2.70;1.00;;;;;;;30.39;38.16;99614.88;1690975;84;21815;-71
2022/07/26 09:46:34;;;;;;;3.52;1.20;;;;;;;30.65;37.45;99621.86;1691046;84;21154;-68
2022/07/26 09:49:18;;;;;;;3.70;0.80;;;;;;;30.89;35.17;99616.47;1688349;84;21112;-70
2022/07/26 09:51:47;;;;;;;1.15;0.80;;;;;;;30.89;35.17;99616.47;1691458;84;21525;-70
2022/07/26 09:54:32;;;;;;;2.37;0.80;;;;;;;30.98;34.22;99614.42;1691069;84;21021;-69
2022/07/26 09:56:59;;;;;;;0.82;0.80;;;;;;;31.08;33.50;99609.47;1691469;84;21575;-69
2022/07/26 09:59:27;;;;;;;5.87;1.45;;;;;;;31.20;33.39;99604.78;1691064;84;21199;-69
2022/07/26 10:01:55;;;;;;;2.95;0.90;;;;;;;31.48;33.23;99610.98;1691240;84;21108;-69
2022/07/26 10:04:21;;;;;;;1.62;1.15;;;;;;;31.74;32.89;99616.16;1690989;84;21623;-69
2022/07/26 10:06:48;;;;;;;1.77;0.98;;;;;;;31.72;33.48;99611.44;1691432;84;21029;-69
2022/07/26 10:09:15;;;;;;;3.15;1.40;;;;;;;31.76;32.37;99602.65;1691235;84;21083;-68
2022/07/26 10:12:02;;;;;;;0.85;0.80;;;;;;;31.80;33.52;99611.26;1691351;84;21206;-69
2022/07/26 10:14:48;;;;;;;1.60;0.98;;;;;;;32.05;33.52;99618.83;1690868;84;21127;-71
2022/07/26 10:17:32;;;;;;;1.10;0.90;;;;;;;32.03;33.51;99618.22;1691055;84;21123;-69
2022/07/26 10:20:05;;;;;;;1.15;0.90;;;;;;;31.62;33.73;99616.46;1690985;84;21069;-70
2022/07/26 10:22:41;;;;;;;1.32;1.10;;;;;;;31.10;33.87;99617.41;1691442;83;21075;-70
2022/07/26 10:25:22;;;;;;;3.65;1.15;;;;;;;30.63;34.51;99618.50;1666775;84;21130;-70
2022/07/26 10:27:51;;;;;;;3.20;1.15;;;;;;;30.60;34.88;99613.47;1690868;84;21069;-70
2022/07/26 10:30:22;;;;;;;2.67;1.40;;;;;;;30.88;35.44;99611.26;1690970;84;21068;-69
2022/07/26 10:33:00;;;;;;;2.02;0.90;;;;;;;31.27;35.05;99605.66;1690810;84;21048;-70
2022/07/26 10:35:39;;;;;;;7.35;1.10;;;;;;;31.69;33.25;99603.70;1686777;84;21041;-70
2022/07/26 10:38:09;;;;;;;1.10;0.95;;;;;;;31.98;32.32;99601.98;1721033;83;21172;-69
2022/07/26 10:40:38;;;;;;;1.65;0.95;;;;;;;31.70;32.62;99605.36;1685884;84;20990;-69
2022/07/26 10:43:15;;;;;;;4.78;2.50;;;;;;;31.07;33.18;99603.69;1720807;83;21585;-69
2022/07/26 10:45:43;;;;;;;2.25;1.10;;;;;;;30.87;34.32;99603.59;1685873;84;21110;-70
2022/07/26 10:48:17;;;;;;;1.20;1.07;;;;;;;30.97;35.12;99603.25;1720496;83;21021;-70
2022/07/26 10:50:46;;;;;;;2.65;1.72;;;;;;;31.06;34.24;99602.53;1720838;83;21199;-69
2022/07/26 10:53:23;;;;;;;2.00;1.50;;;;;;;31.01;35.18;99596.34;1720889;83;26171;-70
2022/07/26 10:55:53;;;;;;;2.52;1.12;;;;;;;31.00;35.21;99599.28;1720881;83;21031;-70
2022/07/26 10:58:21;;;;;;;2.08;1.10;;;;;;;30.88;35.15;99592.23;1720970;83;21569;-68
2022/07/26 11:01:00;;;;;;;2.08;1.00;;;;;;;30.99;35.12;99591.66;1720747;83;21090;-69
2022/07/26 11:03:42;;;;;;;1.00;0.75;;;;;;;31.30;34.52;99590.28;1720391;83;21821;-70
2022/07/26 11:06:12;;;;;;;7.78;1.65;;;;;;;31.55;33.84;99585.15;1720810;83;21023;-69
2022/07/26 11:08:41;;;;;;;3.80;1.90;;;;;;;31.88;33.95;99585.70;1720792;82;21098;-70
2022/07/26 11:11:12;;;;;;;2.60;1.10;;;;;;;32.07;33.46;99581.33;1720926;82;21019;-69
2022/07/26 11:13:39;;;;;;;6.03;1.20;;;;;;;32.21;33.33;99584.38;1720813;82;21062;-69
2022/07/26 11:16:08;;;;;;;4.45;1.32;;;;;;;32.14;33.41;99584.88;1720707;83;21233;-70
2022/07/26 11:18:37;;;;;;;5.25;1.12;;;;;;;31.90;33.78;99593.97;1720494;82;21051;-70
2022/07/26 11:21:12;;;;;;;9.03;0.93;;;;;;;31.79;33.40;99595.95;1720857;83;21095;-70
2022/07/26 11:23:44;;;;;;;3.27;1.00;;;;;;;31.39;33.84;99584.14;1719835;83;21038;-70
2022/07/26 11:26:15;;;;;;;2.12;0.98;;;;;;;31.00;34.28;99591.13;1721176;83;21098;-70
2022/07/26 11:29:00;;;;;;;4.85;1.02;;;;;;;30.61;35.22;99588.48;1721038;83;21086;-71
2022/07/26 11:31:39;;;;;;;5.00;1.00;;;;;;;30.22;36.33;99594.78;1720689;83;21079;-70
2022/07/26 11:34:07;;;;;;;2.52;1.10;;;;;;;29.98;36.94;99586.56;1720551;82;21178;-69
2022/07/26 11:36:41;;;;;;;2.40;1.35;;;;;;;29.98;37.51;99585.70;1721072;83;20987;-70
2022/07/26 11:39:11;;;;;;;6.30;1.37;;;;;;;29.95;37.78;99590.17;1720768;82;21090;-70
2022/07/26 11:41:39;;;;;;;7.08;1.40;;;;;;;29.73;36.93;99598.34;1721147;82;21186;-69